Time;durP1;ratioP1;P1;durP2;ratioP2;P2;SDS_P1;SDS_P2;PMS_P1;PMS_P2;Temp;Humidity;BMP_temperature;BMP_pressure;BME280_temperature;BME280_humidity;BME280_pressure;Samples;Min_cycle;Max_cycle;Signal;HPM_P1;HPM_P2
2024/04/16 00:00:53;;;;;;;0.60;0.37;;;12.50;99.90;;;13.16;56.76;100026.53;6256599;21;98656;-39
2024/04/16 00:03:39;;;;;;;0.47;0.20;;;12.50;99.90;;;13.24;56.38;100034.94;6348868;21;95198;-42
2024/04/16 00:06:09;;;;;;;0.47;0.27;;;12.60;99.90;;;13.13;52.02;100037.28;6207027;21;96142;-38
2024/04/16 00:08:58;;;;;;;3.37;0.20;;;12.60;99.90;;;13.11;50.63;100033.88;6282593;21;111480;-46
2024/04/16 00:11:39;;;;;;;3.37;0.40;;;12.50;99.90;;;13.02;53.60;100029.13;6208431;21;95363;-41
2024/04/16 00:14:11;;;;;;;5.57;0.30;;;12.40;99.90;;;13.10;56.33;100032.16;6143285;21;95198;-38
2024/04/16 00:17:07;;;;;;;3.10;0.40;;;12.50;99.90;;;12.92;54.37;100026.13;6250682;21;95356;-38
2024/04/16 00:19:50;;;;;;;2.10;0.13;;;12.40;99.90;;;13.03;52.92;100031.69;6345167;21;95099;-45
2024/04/16 00:22:32;;;;;;;5.67;0.60;;;12.50;99.90;;;13.08;51.21;100020.81;6208144;21;97999;-41
2024/04/16 00:25:08;;;;;;;2.77;0.40;;;12.70;99.90;;;13.05;48.90;100016.56;6093333;21;94741;-43
2024/04/16 00:28:20;;;;;;;2.07;0.40;;;12.70;99.90;;;13.35;56.00;100021.94;6227784;21;95598;-46
2024/04/16 00:31:02;;;;;;;3.13;0.40;;;12.80;99.90;;;13.34;53.44;100022.03;6080399;21;97639;-42
2024/04/16 00:34:07;;;;;;;0.53;0.23;;;12.80;99.90;;;13.39;54.14;100012.88;6078318;21;96742;-43
2024/04/16 00:36:44;;;;;;;2.27;0.43;;;13.00;99.90;;;13.50;56.77;100006.13;6024099;21;96734;-43
2024/04/16 00:39:31;;;;;;;0.57;0.40;;;13.10;99.90;;;13.31;53.86;100009.81;6286723;21;101255;-37
2024/04/16 00:42:05;;;;;;;1.97;0.40;;;13.00;99.90;;;13.54;50.73;100002.34;6216265;21;101891;-40
2024/04/16 00:44:45;;;;;;;0.67;0.40;;;13.30;99.90;;;13.70;54.51;100000.50;6126730;21;127069;-37
2024/04/16 00:47:39;;;;;;;3.20;0.37;;;13.40;99.90;;;13.55;49.57;99991.66;6082059;21;96363;-40
2024/04/16 00:50:07;;;;;;;2.10;0.50;;;13.40;99.90;;;13.47;47.62;99993.06;6134074;21;93555;-42
2024/04/16 00:52:41;;;;;;;3.03;0.63;;;13.30;99.90;;;13.56;54.67;99985.41;6343665;21;101279;-41
2024/04/16 00:55:29;;;;;;;1.27;0.40;;;13.30;99.90;;;13.46;55.30;99975.44;6092605;21;101788;-42
2024/04/16 00:57:57;;;;;;;1.40;0.30;;;13.10;99.90;;;13.39;54.82;99975.78;6199813;21;97198;-41
2024/04/16 01:00:54;;;;;;;4.13;0.40;;;13.00;99.90;;;13.61;55.20;99975.41;6175184;21;94768;-38
2024/04/16 01:03:31;;;;;;;2.10;0.87;;;13.20;99.90;;;13.53;54.92;99972.34;6180379;21;97413;-40
2024/04/16 01:06:13;;;;;;;3.07;0.30;;;13.10;99.90;;;13.28;49.51;99967.59;6127143;21;99688;-39
2024/04/16 01:08:39;;;;;;;4.60;0.73;;;12.90;99.90;;;13.33;54.00;99976.16;6202366;21;93875;-44
2024/04/16 01:11:14;;;;;;;0.97;0.30;;;12.80;99.90;;;13.26;49.48;99958.91;6280037;21;94147;-33
2024/04/16 01:13:45;;;;;;;0.70;0.30;;;12.90;99.90;;;13.18;54.66;99955.84;6217952;21;99468;-39
2024/04/16 01:16:11;;;;;;;0.93;0.50;;;12.70;99.90;;;13.38;53.01;99952.03;6107612;21;111852;-40
2024/04/16 01:18:44;;;;;;;1.83;0.50;;;12.90;99.90;;;12.98;47.44;99959.59;6308686;21;109473;-40
2024/04/16 01:21:13;;;;;;;3.43;0.73;;;12.70;99.90;;;13.12;55.54;99956.16;6262024;21;94087;-39
2024/04/16 01:23:55;;;;;;;1.87;0.43;;;12.60;99.90;;;13.30;53.21;99955.13;6266263;21;117794;-38
2024/04/16 01:26:53;;;;;;;1.23;0.40;;;12.90;99.90;;;13.26;47.58;99956.25;6218364;21;99643;-39
2024/04/16 01:29:30;;;;;;;2.13;0.83;;;12.90;99.90;;;13.21;50.99;99950.38;6220358;21;93753;-39
2024/04/16 01:31:59;;;;;;;2.83;0.63;;;12.80;99.90;;;13.42;50.28;99939.47;6304015;21;107315;-37
2024/04/16 01:34:25;;;;;;;3.60;0.60;;;13.10;99.90;;;13.35;50.15;99937.19;6256508;21;119147;-41
2024/04/16 01:36:51;;;;;;;3.33;0.83;;;13.00;99.90;;;13.33;47.80;99932.94;6303482;21;124445;-39
2024/04/16 01:39:17;;;;;;;2.33;0.50;;;13.00;99.90;;;13.08;54.15;99928.16;6207347;21;95200;-36
2024/04/16 01:41:43;;;;;;;0.70;0.50;;;12.60;99.90;;;13.05;53.28;99926.53;6251723;21;110495;-42
2024/04/16 01:44:21;;;;;;;1.80;0.40;;;12.50;99.90;;;13.23;54.40;99929.09;6268333;21;121579;-41
2024/04/16 01:46:58;;;;;;;1.23;0.30;;;12.70;99.90;;;13.22;49.75;99920.31;6273009;21;116184;-44
2024/04/16 01:49:30;;;;;;;1.50;0.40;;;12.70;99.90;;;13.29;52.22;99926.94;6357249;21;94598;-39
2024/04/16 01:51:56;;;;;;;1.87;0.40;;;12.80;99.90;;;13.15;48.92;99918.91;6360695;21;97234;-42
2024/04/16 01:54:29;;;;;;;5.90;0.70;;;12.70;99.90;;;13.09;50.85;99914.81;6317156;21;123126;-37
2024/04/16 01:56:55;;;;;;;0.60;0.40;;;12.50;99.90;;;12.96;47.74;99912.97;6410233;21;98064;-38
2024/04/16 01:59:23;;;;;;;2.60;1.03;;;12.50;99.90;;;12.86;48.24;99919.72;6366941;21;93607;-37
2024/04/16 02:01:49;;;;;;;0.53;0.30;;;12.30;99.90;;;13.02;55.34;99907.34;6286873;21;107480;-38
2024/04/16 02:04:18;;;;;;;2.63;0.23;;;12.30;99.90;;;13.05;50.31;99908.00;6169670;21;104208;-36
2024/04/16 02:06:44;;;;;;;1.63;0.60;;;12.50;99.90;;;12.90;51.94;99903.59;6307816;21;118320;-38
2024/04/16 02:09:11;;;;;;;4.83;1.10;;;12.30;99.90;;;12.83;54.49;99907.50;6325127;21;108102;-37
2024/04/16 02:11:37;;;;;;;5.33;0.67;;;12.20;99.90;;;13.17;55.18;99906.44;6249321;21;93073;-39
2024/04/16 02:14:03;;;;;;;2.23;0.90;;;12.60;99.90;;;13.07;49.18;99913.22;6287534;21;118545;-40
2024/04/16 02:16:46;;;;;;;3.07;0.80;;;12.60;99.90;;;12.79;51.43;99909.50;6319974;21;115463;-40
2024/04/16 02:19:12;;;;;;;1.80;0.70;;;12.30;99.90;;;12.67;47.42;99901.38;6366823;21;93371;-39
2024/04/16 02:21:55;;;;;;;0.30;0.30;;;12.30;99.90;;;12.66;55.65;99900.53;6165413;21;108226;-41
2024/04/16 02:24:46;;;;;;;2.17;0.30;;;12.10;99.90;;;12.64;49.59;99906.84;6303026;21;100068;-47
2024/04/16 02:27:20;;;;;;;0.53;0.30;;;12.10;99.90;;;12.68;55.77;99903.94;6326345;21;99947;-39
2024/04/16 02:30:30;;;;;;;1.73;0.50;;;12.10;99.90;;;12.69;53.31;99900.34;6329627;21;106948;-41
2024/04/16 02:33:04;;;;;;;2.93;0.50;;;12.10;99.90;;;12.65;52.84;99896.19;6372370;21;96162;-37
2024/04/16 02:35:40;;;;;;;3.63;0.60;;;12.10;99.90;;;12.34;49.19;99898.81;6257078;21;98507;-39
2024/04/16 02:38:08;;;;;;;1.73;0.47;;;11.90;99.90;;;12.38;54.37;99895.06;6165891;21;101485;-36
2024/04/16 02:40:38;;;;;;;1.20;0.40;;;11.80;99.90;;;12.40;52.20;99890.53;6333573;21;97412;-40
2024/04/16 02:43:04;;;;;;;2.93;0.50;;;11.90;99.90;;;12.24;49.17;99892.31;6416547;21;99282;-41
2024/04/16 02:45:40;;;;;;;3.07;0.53;;;11.80;99.90;;;12.32;58.44;99884.84;6298214;21;109278;-37
2024/04/16 02:48:21;;;;;;;4.30;0.80;;;11.70;99.90;;;12.45;55.83;99885.88;6273767;21;100450;-43
2024/04/16 02:50:51;;;;;;;0.83;0.50;;;11.80;99.90;;;12.27;50.24;99884.22;6235708;21;93289;-40
2024/04/16 02:53:22;;;;;;;3.47;0.60;;;11.80;99.90;;;12.26;53.85;99885.16;6351454;21;93636;-42
2024/04/16 02:55:55;;;;;;;1.40;0.60;;;11.60;99.90;;;12.23;50.00;99880.88;6211531;21;124631;-43
2024/04/16 02:58:23;;;;;;;2.80;0.60;;;11.70;99.90;;;12.09;50.77;99879.00;6203667;21;96419;-41
2024/04/16 03:01:04;;;;;;;1.30;0.50;;;11.60;99.90;;;12.05;51.91;99873.97;6269745;21;93449;-38
2024/04/16 03:03:46;;;;;;;0.53;0.43;;;11.50;99.90;;;12.00;50.87;99874.19;6232410;21;93686;-37
2024/04/16 03:06:12;;;;;;;0.60;0.30;;;11.50;99.90;;;11.82;49.53;99869.91;6337177;21;97998;-40
2024/04/16 03:08:52;;;;;;;2.10;0.57;;;11.40;99.90;;;11.92;51.55;99860.56;6369689;21;108051;-42
2024/04/16 03:11:20;;;;;;;3.43;0.87;;;11.40;99.90;;;11.98;51.51;99860.22;6221470;21;102428;-42
2024/04/16 03:13:48;;;;;;;1.23;0.50;;;11.40;99.90;;;11.82;50.62;99854.03;6247554;21;95999;-38
2024/04/16 03:16:18;;;;;;;1.27;0.60;;;11.40;99.90;;;11.66;50.55;99853.13;6231049;21;126776;-38
2024/04/16 03:18:59;;;;;;;5.20;0.70;;;11.30;99.90;;;11.89;53.66;99855.44;6232403;21;119970;-45
2024/04/16 03:21:35;;;;;;;2.20;0.57;;;11.40;99.90;;;11.87;52.30;99852.03;6289957;21;99858;-39
2024/04/16 03:24:00;;;;;;;1.30;0.20;;;11.40;99.90;;;12.14;58.14;99855.78;6332463;21;96398;-35
2024/04/16 03:26:32;;;;;;;1.60;0.50;;;11.60;99.90;;;12.26;57.62;99861.34;6377371;21;108034;-41
2024/04/16 03:29:01;;;;;;;3.00;0.80;;;11.70;99.90;;;12.19;52.74;99859.06;6289429;21;98686;-41
2024/04/16 03:31:27;;;;;;;1.90;0.43;;;11.70;99.90;;;12.33;52.52;99855.66;6297800;21;102125;-37
2024/04/16 03:33:57;;;;;;;2.27;0.50;;;11.90;99.90;;;12.53;52.60;99843.97;6359125;21;96077;-41
2024/04/16 03:36:30;;;;;;;0.87;0.50;;;12.10;99.90;;;12.49;56.21;99834.50;6333945;21;96208;-36
2024/04/16 03:38:56;;;;;;;1.53;0.77;;;12.10;99.90;;;12.62;55.31;99834.66;6359248;21;98878;-41
2024/04/16 03:41:24;;;;;;;1.40;0.70;;;12.10;99.90;;;12.58;54.17;99827.81;6435208;21;98542;-43
2024/04/16 03:43:56;;;;;;;1.47;0.47;;;12.00;99.90;;;12.43;53.78;99830.38;6391905;21;93985;-37
2024/04/16 03:46:22;;;;;;;1.77;0.60;;;11.90;99.90;;;12.27;53.62;99828.69;6306908;21;110745;-40
2024/04/16 03:48:48;;;;;;;0.70;0.50;;;11.70;99.90;;;12.36;55.04;99828.19;6338741;21;94782;-42
2024/04/16 03:51:18;;;;;;;3.17;0.97;;;11.70;99.90;;;12.26;53.44;99837.56;6297103;21;103503;-38
2024/04/16 03:53:47;;;;;;;3.23;0.83;;;11.70;99.90;;;12.26;58.05;99827.84;6270786;21;99851;-37
2024/04/16 03:56:14;;;;;;;3.13;1.03;;;11.60;99.90;;;12.24;54.94;99842.09;6294240;21;99753;-40
2024/04/16 04:01:24;;;;;;;0.80;0.50;;;11.60;99.90;;;12.22;58.68;99834.25;6361751;21;93746;-38
2024/04/16 04:03:52;;;;;;;0.83;0.47;;;11.60;99.90;;;12.07;54.08;99843.88;6298024;21;93653;-41
2024/04/16 04:06:21;;;;;;;5.70;0.90;;;11.60;99.90;;;12.33;59.37;99823.06;6317129;21;95529;-42
2024/04/16 04:08:47;;;;;;;0.73;0.60;;;11.70;99.90;;;12.26;55.68;99824.34;6351067;21;95625;-39
2024/04/16 04:11:17;;;;;;;2.40;0.70;;;11.80;99.90;;;12.24;56.77;99816.50;6346062;21;93782;-43
2024/04/16 04:13:43;;;;;;;3.53;0.73;;;11.80;99.90;;;12.27;56.68;99823.41;6374843;21;93723;-41
2024/04/16 04:16:13;;;;;;;3.57;0.80;;;11.70;99.90;;;12.67;57.84;99814.91;6363934;21;107157;-39
2024/04/16 04:18:44;;;;;;;3.30;0.40;;;12.20;99.90;;;12.57;53.90;99826.97;6340959;21;97456;-42
2024/04/16 04:21:10;;;;;;;1.70;0.60;;;12.20;99.90;;;12.77;57.31;99826.69;6332583;21;94386;-40
2024/04/16 04:23:36;;;;;;;3.20;0.80;;;12.30;99.90;;;12.98;56.67;99815.78;6257348;21;94568;-44
2024/04/16 04:26:05;;;;;;;1.90;0.60;;;12.50;99.90;;;12.97;55.46;99825.53;6287045;21;95387;-39
2024/04/16 04:28:35;;;;;;;1.60;0.30;;;12.50;99.90;;;12.87;55.17;99823.50;6258148;21;94770;-46
2024/04/16 04:31:16;;;;;;;4.80;0.80;;;12.60;99.90;;;12.99;56.25;99822.78;6374207;21;93613;-40
2024/04/16 04:33:45;;;;;;;1.63;0.40;;;12.60;99.90;;;12.94;53.25;99814.28;6363133;21;95260;-39
2024/04/16 04:36:19;;;;;;;1.67;1.03;;;12.60;99.90;;;12.71;52.53;99811.16;6274274;21;99068;-42
2024/04/16 04:38:47;;;;;;;1.60;0.70;;;12.40;99.90;;;12.84;57.35;99800.72;6298112;21;99469;-35
2024/04/16 04:41:16;;;;;;;1.33;0.70;;;12.30;99.90;;;12.64;53.26;99815.09;6323349;21;94899;-42
2024/04/16 04:43:58;;;;;;;3.10;0.90;;;12.20;99.90;;;12.74;54.07;99813.66;6343526;21;98224;-36
2024/04/16 04:46:30;;;;;;;1.80;0.60;;;12.20;99.90;;;12.66;54.35;99805.28;6369161;21;99874;-41
2024/04/16 04:48:56;;;;;;;3.73;0.67;;;12.10;99.90;;;12.86;56.84;99797.97;6239927;21;99151;-35
2024/04/16 04:51:24;;;;;;;2.20;0.80;;;12.30;99.90;;;13.08;57.08;99790.47;6268607;21;99719;-38
2024/04/16 04:53:53;;;;;;;4.63;0.70;;;12.60;99.90;;;13.12;54.62;99797.28;6333173;21;98184;-39
2024/04/16 04:56:24;;;;;;;2.03;0.60;;;12.70;99.90;;;13.06;53.18;99801.16;6328859;21;101426;-40
2024/04/16 04:58:55;;;;;;;2.10;0.50;;;12.70;99.90;;;13.34;56.35;99797.75;6391698;21;101813;-43
2024/04/16 05:01:21;;;;;;;1.60;0.70;;;13.00;99.90;;;13.29;55.98;99798.97;6307578;21;93481;-35
2024/04/16 05:03:49;;;;;;;2.97;0.70;;;12.90;99.90;;;13.06;53.70;99787.09;6355458;21;96579;-39
2024/04/16 05:06:14;;;;;;;2.97;0.50;;;12.70;99.90;;;12.90;55.93;99791.56;6329454;21;104520;-43
2024/04/16 05:08:40;;;;;;;2.33;0.67;;;12.30;99.90;;;12.88;52.96;99794.31;6273312;21;101317;-34
2024/04/16 05:11:08;;;;;;;0.33;0.30;;;12.40;99.90;;;12.61;53.97;99782.69;6356026;21;102158;-44
2024/04/16 05:13:34;;;;;;;1.63;0.70;;;12.30;99.90;;;12.79;58.08;99789.56;6308525;21;107228;-37
2024/04/16 05:16:01;;;;;;;1.07;0.53;;;12.20;99.90;;;12.78;53.46;99788.69;6259314;21;101935;-36
2024/04/16 05:18:51;;;;;;;0.80;0.60;;;12.40;99.90;;;12.56;57.35;99788.22;6220852;21;94415;-37
2024/04/16 05:21:30;;;;;;;3.27;0.67;;;12.10;99.90;;;12.77;56.48;99776.41;6158729;21;95175;-36
2024/04/16 05:24:02;;;;;;;1.27;0.47;;;12.30;99.90;;;12.88;54.57;99788.16;6254565;21;94365;-41
2024/04/16 05:26:28;;;;;;;2.57;1.03;;;12.40;99.90;;;12.95;57.88;99790.34;6225054;21;100610;-40
2024/04/16 05:31:46;;;;;;;1.10;0.70;;;12.40;99.90;;;12.60;56.26;99789.78;6262301;21;94162;-37
2024/04/16 05:34:21;;;;;;;1.07;0.67;;;12.10;99.90;;;12.55;55.22;99785.66;6396918;21;93720;-34
2024/04/16 05:37:16;;;;;;;3.57;0.93;;;12.00;99.90;;;12.62;56.89;99793.19;6301135;21;125369;-41
2024/04/16 05:39:51;;;;;;;0.87;0.80;;;12.10;99.90;;;12.76;55.64;99793.25;6261860;21;97725;-39
2024/04/16 05:42:20;;;;;;;2.30;0.50;;;12.20;99.90;;;12.79;57.12;99787.75;6339844;21;113474;-43
2024/04/16 05:44:52;;;;;;;1.07;0.40;;;12.20;99.90;;;12.70;54.15;99795.38;6364280;21;93704;-39
2024/04/16 05:47:17;;;;;;;0.80;0.57;;;12.20;99.90;;;12.45;54.86;99785.38;6275353;21;101621;-32
2024/04/16 05:49:52;;;;;;;2.60;0.87;;;12.00;99.90;;;12.20;54.58;99777.97;6431208;21;106432;-42
2024/04/16 05:52:18;;;;;;;1.57;0.57;;;11.70;99.90;;;12.33;58.11;99780.75;6131581;21;109364;-35
2024/04/16 05:54:44;;;;;;;1.63;0.60;;;11.70;99.90;;;12.44;59.15;99767.75;6384186;21;95634;-38
2024/04/16 05:57:20;;;;;;;3.83;0.67;;;11.80;99.90;;;12.24;57.98;99760.97;6441442;21;123079;-40
2024/04/16 05:59:51;;;;;;;1.37;0.67;;;11.80;99.90;;;12.10;55.43;99756.47;6359317;21;99256;-37
2024/04/16 06:02:20;;;;;;;4.17;1.07;;;11.70;99.90;;;12.15;54.91;99751.78;6412283;21;94576;-42
2024/04/16 06:04:46;;;;;;;0.60;0.60;;;11.80;99.90;;;12.09;56.06;99741.53;6413448;21;93503;-41
2024/04/16 06:07:27;;;;;;;1.13;0.80;;;11.70;99.90;;;12.20;55.51;99736.50;6291660;21;104920;-40
2024/04/16 06:09:59;;;;;;;1.00;0.77;;;11.80;99.90;;;12.45;57.90;99727.19;6304075;21;98942;-36
2024/04/16 06:12:42;;;;;;;0.60;0.60;;;11.90;99.90;;;12.34;54.80;99734.88;6356340;21;95124;-41
2024/04/16 06:15:08;;;;;;;2.80;1.00;;;11.90;99.90;;;12.47;58.73;99731.44;6166947;21;93742;-42
2024/04/16 06:17:33;;;;;;;1.63;0.90;;;11.90;99.90;;;12.31;58.87;99717.41;6307870;21;105376;-37
2024/04/16 06:20:11;;;;;;;3.37;0.90;;;11.80;99.90;;;12.28;58.90;99719.34;6346746;21;119702;-44
2024/04/16 06:22:44;;;;;;;1.33;0.50;;;11.70;99.90;;;12.31;55.96;99698.88;6129014;21;95850;-47
2024/04/16 06:25:21;;;;;;;1.90;0.80;;;11.80;99.90;;;12.52;56.35;99702.06;6176550;21;95359;-38
2024/04/16 06:27:51;;;;;;;2.57;0.97;;;12.00;99.90;;;12.54;57.92;99696.69;6151363;21;97742;-40
2024/04/16 06:30:23;;;;;;;2.23;0.87;;;12.00;99.90;;;12.64;57.43;99701.34;6220028;21;94427;-34
2024/04/16 06:32:50;;;;;;;2.47;1.00;;;12.10;99.90;;;12.62;56.68;99691.81;6242246;21;100938;-34
2024/04/16 06:35:25;;;;;;;3.67;0.70;;;12.10;99.90;;;12.79;57.67;99679.25;6193846;21;94812;-39
2024/04/16 06:38:19;;;;;;;6.93;1.77;;;12.20;99.90;;;12.69;56.23;99680.75;5999164;21;118701;-41
2024/04/16 06:40:52;;;;;;;2.67;0.70;;;12.20;99.90;;;12.44;56.15;99677.84;6099704;21;95618;-42
2024/04/16 06:43:18;;;;;;;3.37;0.87;;;12.00;99.90;;;12.43;56.45;99678.78;6134475;21;93731;-35
2024/04/16 06:45:43;;;;;;;2.00;0.90;;;12.00;99.90;;;12.30;56.03;99660.16;6311557;21;93439;-41
2024/04/16 06:48:09;;;;;;;2.00;0.40;;;11.90;99.90;;;12.26;59.32;99668.34;6372643;21;116473;-34
2024/04/16 06:50:35;;;;;;;2.13;0.80;;;11.80;99.90;;;12.15;57.94;99661.91;6122323;21;106303;-43
2024/04/16 06:53:21;;;;;;;1.03;0.80;;;11.80;99.90;;;12.21;58.75;99656.25;6182942;21;94298;-35
2024/04/16 06:56:26;;;;;;;2.93;0.87;;;11.70;99.90;;;12.37;58.67;99661.50;6197886;21;95585;-43
2024/04/16 06:58:58;;;;;;;4.40;0.70;;;12.00;99.90;;;12.40;57.26;99655.16;6119364;21;95088;-34
2024/04/16 07:01:27;;;;;;;2.50;0.80;;;12.10;99.90;;;12.27;58.44;99647.09;6242193;21;94962;-40
2024/04/16 07:03:57;;;;;;;3.07;1.00;;;12.00;99.90;;;12.30;60.21;99646.09;6290979;21;93531;-41
2024/04/16 07:06:33;;;;;;;6.20;1.10;;;11.90;99.90;;;12.40;60.02;99640.16;6380910;21;103738;-42
2024/04/16 07:09:02;;;;;;;0.93;0.80;;;11.90;99.90;;;12.16;58.76;99631.03;6358936;21;97991;-45
2024/04/16 07:11:30;;;;;;;4.83;1.03;;;11.80;99.90;;;12.32;58.33;99623.06;6271466;21;102038;-43
2024/04/16 07:14:01;;;;;;;1.93;1.13;;;11.90;99.90;;;12.58;59.66;99646.13;6303857;21;99884;-39
2024/04/16 07:16:32;;;;;;;2.07;1.00;;;12.10;99.90;;;12.67;58.87;99648.25;6276615;21;93698;-40
2024/04/16 07:19:12;;;;;;;2.07;0.93;;;12.30;99.90;;;12.77;58.41;99637.97;6185428;21;101483;-39
2024/04/16 07:21:49;;;;;;;4.00;1.10;;;12.40;99.90;;;12.51;56.62;99658.03;6125381;21;110838;-44
2024/04/16 07:24:20;;;;;;;2.13;0.40;;;12.40;99.90;;;12.31;58.29;99640.72;6226032;21;93680;-39
2024/04/16 07:26:56;;;;;;;1.53;0.33;;;12.30;99.90;;;12.10;57.41;99637.50;6370925;21;111090;-35
2024/04/16 07:29:21;;;;;;;1.53;0.20;;;12.10;99.90;;;12.03;60.54;99638.81;6442529;21;109481;-34
2024/04/16 07:31:48;;;;;;;0.57;0.30;;;11.90;99.90;;;12.42;57.62;99617.09;6350603;21;116727;-42
2024/04/16 07:34:19;;;;;;;1.67;0.50;;;12.20;99.90;;;12.63;54.89;99627.38;6406885;21;100122;-35
2024/04/16 07:36:57;;;;;;;0.67;0.20;;;12.60;99.90;;;12.45;57.52;99605.53;6368797;21;97647;-35
2024/04/16 07:39:28;;;;;;;1.07;0.40;;;12.50;99.90;;;12.49;58.55;99604.38;6325520;21;94406;-41
2024/04/16 07:41:54;;;;;;;0.40;0.20;;;12.50;99.90;;;12.56;57.76;99597.75;6222596;21;96217;-34
2024/04/16 07:44:22;;;;;;;1.17;0.30;;;12.50;99.90;;;12.51;54.93;99615.72;6327601;21;95763;-41
2024/04/16 07:47:01;;;;;;;0.53;0.20;;;12.60;99.90;;;12.53;58.64;99592.66;6242577;21;95207;-44
2024/04/16 07:49:27;;;;;;;1.17;0.23;;;12.40;99.90;;;12.37;57.55;99586.59;6311729;21;116814;-44
2024/04/16 07:51:53;;;;;;;0.50;0.37;;;12.40;99.90;;;12.42;57.62;99595.09;6327315;21;124744;-36
2024/04/16 07:54:20;;;;;;;0.60;0.20;;;12.40;99.90;;;12.68;58.81;99599.66;6364511;21;96175;-39
2024/04/16 07:56:55;;;;;;;2.10;0.50;;;12.60;99.90;;;12.88;57.49;99602.91;6377554;21;112389;-34
2024/04/16 07:59:21;;;;;;;2.03;0.50;;;12.80;99.90;;;12.63;57.06;99607.06;6349190;21;94323;-39
2024/04/16 08:01:46;;;;;;;0.30;0.20;;;12.70;99.90;;;12.65;56.34;99597.22;6338206;21;98394;-42
2024/04/16 08:04:24;;;;;;;1.67;0.40;;;12.70;99.90;;;12.52;56.39;99606.84;6379583;21;104318;-45
2024/04/16 08:06:55;;;;;;;0.57;0.30;;;12.60;99.90;;;12.61;58.49;99595.72;6385846;21;104316;-38
2024/04/16 08:09:56;;;;;;;0.77;0.47;;;12.70;99.90;;;12.61;57.29;99589.56;6217367;21;127633;-44
2024/04/16 08:12:21;;;;;;;3.30;0.37;;;12.70;99.90;;;12.48;57.00;99600.88;6340886;21;98260;-37
2024/04/16 08:14:50;;;;;;;0.57;0.40;;;12.60;99.90;;;12.38;57.94;99588.31;6369862;21;107411;-40
2024/04/16 08:17:32;;;;;;;0.43;0.40;;;12.60;99.90;;;12.48;58.02;99594.75;6440726;21;97038;-37
2024/04/16 08:20:10;;;;;;;0.40;0.30;;;12.50;99.90;;;12.52;58.83;99596.25;6118233;21;99623;-39
2024/04/16 08:22:37;;;;;;;1.37;0.30;;;12.60;99.90;;;12.60;57.47;99596.66;6309027;21;101486;-44
2024/04/16 08:25:06;;;;;;;0.50;0.30;;;12.80;99.90;;;12.64;58.11;99598.16;6315882;21;93625;-46
2024/04/16 08:27:38;;;;;;;0.67;0.30;;;12.80;99.90;;;12.72;57.24;99601.19;6261603;21;93553;-38
2024/04/16 08:30:19;;;;;;;1.57;0.60;;;12.80;99.90;;;12.57;59.34;99607.41;6282551;21;118405;-48
2024/04/16 08:32:55;;;;;;;2.20;0.50;;;12.70;99.90;;;12.68;58.22;99599.66;6317262;21;99700;-40
2024/04/16 08:35:31;;;;;;;1.70;0.47;;;12.80;99.90;;;12.86;58.80;99600.34;6368837;21;97009;-41
2024/04/16 08:38:03;;;;;;;0.73;0.50;;;12.90;99.90;;;12.76;57.48;99599.22;6237275;21;96547;-36
2024/04/16 08:40:51;;;;;;;1.07;0.40;;;12.90;99.90;;;12.81;58.96;99597.13;6257294;21;95260;-40
2024/04/16 08:43:33;;;;;;;3.67;0.63;;;12.90;99.90;;;12.78;59.09;99598.19;6352170;21;102149;-47
2024/04/16 08:46:04;;;;;;;0.97;0.57;;;12.80;99.90;;;12.98;58.83;99598.72;6237352;21;93794;-34
2024/04/16 08:48:52;;;;;;;1.07;0.43;;;13.00;99.90;;;12.95;58.99;99583.91;6201766;21;114611;-35
2024/04/16 08:51:35;;;;;;;1.70;0.93;;;13.10;99.90;;;12.90;58.85;99585.13;6214255;21;98265;-39
2024/04/16 08:54:19;;;;;;;1.50;0.70;;;13.00;99.90;;;12.97;58.39;99597.03;6240592;21;110628;-40
2024/04/16 08:57:03;;;;;;;0.63;0.40;;;13.10;99.90;;;13.14;57.79;99598.63;6210614;21;96137;-40
2024/04/16 08:59:38;;;;;;;2.80;0.70;;;13.10;99.90;;;13.09;58.85;99594.47;6268633;21;93616;-45
2024/04/16 09:02:06;;;;;;;0.60;0.60;;;13.10;99.90;;;13.13;58.05;99591.63;6243550;21;99081;-40
2024/04/16 09:04:37;;;;;;;2.47;0.60;;;13.30;99.90;;;13.11;58.09;99600.53;6244209;21;114503;-40
2024/04/16 09:07:12;;;;;;;2.17;0.80;;;13.30;99.90;;;13.00;58.14;99596.84;6233599;21;100427;-40
2024/04/16 09:09:47;;;;;;;0.63;0.50;;;13.30;99.90;;;12.70;59.03;99605.72;6321876;21;98491;-34
2024/04/16 09:12:13;;;;;;;0.97;0.50;;;13.00;99.90;;;12.98;58.38;99594.28;6270921;21;102969;-38
2024/04/16 09:14:41;;;;;;;1.77;1.00;;;13.10;99.90;;;12.87;58.61;99601.19;6331336;21;104541;-46
2024/04/16 09:17:30;;;;;;;2.40;0.70;;;13.00;99.90;;;12.97;59.18;99602.31;6349564;21;102015;-38
2024/04/16 09:20:01;;;;;;;2.93;0.90;;;13.00;99.90;;;13.11;58.98;99594.38;6336271;21;95249;-39
2024/04/16 09:22:30;;;;;;;2.40;0.63;;;13.20;99.90;;;12.98;58.93;99610.16;6322875;21;111447;-42
2024/04/16 09:25:08;;;;;;;0.87;0.60;;;13.20;99.90;;;13.06;59.60;99604.41;6351166;21;93353;-34
2024/04/16 09:27:39;;;;;;;2.27;0.60;;;13.20;99.90;;;13.17;58.86;99603.75;6264848;21;96069;-38
2024/04/16 09:30:22;;;;;;;0.93;0.83;;;13.40;99.90;;;13.05;58.57;99606.22;6315929;21;94022;-40
2024/04/16 09:33:20;;;;;;;2.03;0.90;;;13.30;99.90;;;13.15;59.37;99605.63;6419287;21;103014;-42
2024/04/16 09:36:01;;;;;;;5.13;1.07;;;13.30;99.90;;;13.20;59.03;99598.28;6230703;21;98808;-37
2024/04/16 09:38:52;;;;;;;6.13;0.90;;;13.30;99.90;;;12.93;59.76;99617.56;6271076;21;93380;-41
2024/04/16 09:41:18;;;;;;;1.77;0.77;;;13.20;99.90;;;12.98;59.36;99614.63;6237856;21;110460;-38
2024/04/16 09:43:44;;;;;;;1.30;0.60;;;13.20;99.90;;;13.00;59.85;99612.72;6305782;21;112544;-38
2024/04/16 09:46:35;;;;;;;1.27;0.70;;;13.20;99.90;;;13.06;58.69;99613.22;6251919;21;99664;-43
2024/04/16 09:49:09;;;;;;;0.43;0.43;;;13.30;99.90;;;12.84;59.98;99611.97;6098293;21;95878;-38
2024/04/16 09:51:47;;;;;;;3.00;0.53;;;13.10;99.90;;;12.88;59.77;99610.84;6322965;21;101057;-38
2024/04/16 09:54:27;;;;;;;1.70;0.60;;;13.10;99.90;;;12.95;59.00;99609.50;6348240;21;100409;-39
2024/04/16 09:57:14;;;;;;;1.20;0.40;;;13.20;99.90;;;12.84;59.13;99606.66;6262063;21;97963;-39
2024/04/16 09:59:52;;;;;;;1.93;0.93;;;13.10;99.90;;;12.70;60.31;99611.00;6204550;21;95618;-40
2024/04/16 10:02:21;;;;;;;0.97;0.70;;;13.00;99.90;;;12.78;60.72;99619.34;6218665;21;94151;-34
2024/04/16 10:05:08;;;;;;;2.20;0.80;;;12.90;99.90;;;12.82;60.00;99609.41;6382581;21;95338;-40
2024/04/16 10:07:54;;;;;;;3.70;0.70;;;13.10;99.90;;;12.89;58.57;99609.91;6338351;21;97167;-30
2024/04/16 10:10:20;;;;;;;0.40;0.30;;;13.20;99.90;;;13.05;58.22;99615.94;6368878;21;93402;-36
2024/04/16 10:13:06;;;;;;;2.30;0.70;;;13.30;99.90;;;12.77;58.67;99616.78;6231810;21;111576;-44
2024/04/16 10:15:33;;;;;;;0.60;0.57;;;13.10;99.90;;;12.71;58.97;99607.41;6318411;21;98940;-36
2024/04/16 10:18:11;;;;;;;1.07;0.40;;;13.00;99.90;;;12.91;58.91;99618.59;6266338;21;93894;-40
2024/04/16 10:20:56;;;;;;;2.20;0.40;;;13.20;99.90;;;12.77;58.92;99612.34;6147764;21;94651;-32
2024/04/16 10:23:52;;;;;;;2.10;0.30;;;13.10;99.90;;;12.86;58.90;99605.63;6263930;21;94535;-41
2024/04/16 10:26:33;;;;;;;2.60;0.50;;;13.10;99.90;;;12.89;58.69;99612.56;6336617;21;101802;-39
2024/04/16 10:29:36;;;;;;;1.93;0.60;;;13.20;99.90;;;12.76;59.35;99621.25;6092579;21;99260;-34
2024/04/16 10:32:13;;;;;;;1.60;0.43;;;13.00;99.90;;;12.72;58.85;99638.22;6283645;21;94319;-38
2024/04/16 10:34:42;;;;;;;4.07;0.70;;;13.00;99.90;;;12.55;60.47;99627.81;6221383;21;93648;-40
2024/04/16 10:37:23;;;;;;;2.83;0.93;;;12.70;99.90;;;12.43;59.65;99634.69;6306408;21;94114;-45
2024/04/16 10:40:07;;;;;;;4.33;1.07;;;12.80;99.90;;;12.65;60.92;99628.97;6197179;21;99316;-38
2024/04/16 10:42:46;;;;;;;1.53;0.67;;;12.80;99.90;;;12.37;61.30;99644.78;6230993;21;93983;-40
2024/04/16 10:45:24;;;;;;;2.00;0.60;;;12.60;99.90;;;12.37;62.29;99656.22;6290038;21;93756;-38
2024/04/16 10:48:08;;;;;;;0.40;0.40;;;12.60;99.90;;;12.42;63.12;99654.13;6310758;21;102682;-32
2024/04/16 10:50:38;;;;;;;4.93;1.07;;;12.60;99.90;;;12.38;64.54;99697.56;6282272;21;107465;-40